Terminal Aerodrome Forecast
Issued by NWS

Home | Current Version | Previous Version | Text Only | Print | Product List | Glossary On
Versions: 1 2 3 4 5 6 7 8 9 10 11 12 13 14 15
000
FTUS43 KEAX 180500
TAFMKC
TAF
KMKC 180520Z 1806/1906 15003KT P6SM BKN250
      TEMPO 1807/1808 28012KT
     FM180900 VRB03KT P6SM VCSH BKN120
     FM181300 17009KT P6SM BKN200
     FM190000 15005KT P6SM BKN150 PROB30 1901/1906 5SM -TSRA
      SCT050CB=

USA.gov is the U.S. government's official web portal to all federal, state and local government web resources and services.